createdAt,value
2023-10-29T00:00:34.336Z,10.50
2023-10-29T00:03:03.454Z,10.50
2023-10-29T00:05:32.362Z,10.50
2023-10-29T00:08:01.322Z,10.50
2023-10-29T00:10:31.776Z,10.50
2023-10-29T00:13:02.298Z,10.50
2023-10-29T00:15:31.798Z,10.50
2023-10-29T00:18:01.163Z,10.60
2023-10-29T00:20:29.978Z,10.60
2023-10-29T00:22:58.962Z,10.60
2023-10-29T00:25:27.787Z,10.60
2023-10-29T00:27:58.099Z,10.60
2023-10-29T00:30:26.799Z,10.60
2023-10-29T00:32:55.763Z,10.60
2023-10-29T00:35:24.889Z,10.60
2023-10-29T00:37:53.768Z,10.60
2023-10-29T00:40:23.277Z,10.60
2023-10-29T00:42:52.172Z,10.50
2023-10-29T00:45:22.566Z,10.60
2023-10-29T00:47:52.108Z,10.50
2023-10-29T00:50:21.350Z,10.60
2023-10-29T00:52:50.575Z,10.60
2023-10-29T00:55:20.059Z,10.60
2023-10-29T00:57:48.982Z,10.50
2023-10-29T01:00:22.457Z,10.60
2023-10-29T01:02:52.945Z,10.50
2023-10-29T01:05:23.177Z,10.50
2023-10-29T01:07:54.765Z,10.50
2023-10-29T01:10:23.590Z,10.50
2023-10-29T01:12:53.035Z,10.50
2023-10-29T01:15:21.727Z,10.40
2023-10-29T01:17:50.842Z,10.40
2023-10-29T01:20:22.814Z,10.40
2023-10-29T01:22:51.528Z,10.40
2023-10-29T01:25:20.718Z,10.40
2023-10-29T01:27:49.722Z,10.40
2023-10-29T01:30:19.203Z,10.40
2023-10-29T01:32:48.289Z,10.40
2023-10-29T01:35:17.142Z,10.40
2023-10-29T01:37:47.492Z,10.40
2023-10-29T01:40:16.456Z,10.40
2023-10-29T01:42:47.074Z,10.40
2023-10-29T01:45:18.337Z,10.40
2023-10-29T01:47:47.257Z,10.40
2023-10-29T01:50:16.570Z,10.40
2023-10-29T01:52:46.984Z,10.50
2023-10-29T01:55:15.973Z,10.40
2023-10-29T01:57:44.892Z,10.40
2023-10-29T02:00:15.197Z,10.40
2023-10-29T02:02:45.010Z,10.40
2023-10-29T02:05:14.060Z,10.40
2023-10-29T02:07:42.853Z,10.40
2023-10-29T02:10:13.813Z,10.40
2023-10-29T02:12:42.581Z,10.40
2023-10-29T02:15:11.576Z,10.40
2023-10-29T02:17:40.436Z,10.40
2023-10-29T02:20:10.491Z,10.40
2023-10-29T02:22:41.432Z,10.40
2023-10-29T02:25:10.883Z,10.40
2023-10-29T02:27:39.596Z,10.50
2023-10-29T02:30:09.552Z,10.50
2023-10-29T02:32:38.497Z,10.50
2023-10-29T02:35:09.078Z,10.60
2023-10-29T02:37:37.862Z,10.60
2023-10-29T02:40:10.312Z,10.50
2023-10-29T02:42:39.023Z,10.50
2023-10-29T02:45:08.860Z,10.50
2023-10-29T02:47:38.149Z,10.50
2023-10-29T02:50:07.649Z,10.50
2023-10-29T02:52:36.589Z,10.50
2023-10-29T02:55:09.235Z,10.50
2023-10-29T02:57:38.318Z,10.50
2023-10-29T03:00:08.590Z,10.50
2023-10-29T03:02:37.598Z,10.50
2023-10-29T03:05:07.545Z,10.60
2023-10-29T03:07:36.444Z,10.60
2023-10-29T03:10:09.122Z,10.60
2023-10-29T03:12:38.379Z,10.60
2023-10-29T03:15:08.346Z,10.60
2023-10-29T03:17:37.265Z,10.60
2023-10-29T03:20:07.183Z,10.60
2023-10-29T03:22:36.080Z,10.60
2023-10-29T03:25:05.913Z,10.60
2023-10-29T03:27:36.415Z,10.50
2023-10-29T03:30:05.812Z,10.50
2023-10-29T03:32:34.786Z,10.50
2023-10-29T03:35:05.403Z,10.50
2023-10-29T03:37:34.223Z,10.50
2023-10-29T03:40:02.868Z,10.40
2023-10-29T03:42:31.642Z,10.40
2023-10-29T03:45:02.312Z,10.30
2023-10-29T03:47:31.427Z,10.30
2023-10-29T03:50:00.252Z,10.30
2023-10-29T03:52:28.979Z,10.20
2023-10-29T03:54:57.784Z,10.20
2023-10-29T03:57:26.646Z,10.20
2023-10-29T03:59:56.978Z,10.20
2023-10-29T04:02:27.232Z,10.20
2023-10-29T04:05:08.265Z,10.10
2023-10-29T04:07:38.298Z,10.10
2023-10-29T04:10:08.331Z,10.00
2023-10-29T04:12:37.231Z,10.00
2023-10-29T04:15:06.693Z,10.00
2023-10-29T04:17:37.176Z,9.90
2023-10-29T04:20:07.649Z,9.90
2023-10-29T04:22:37.849Z,9.80
2023-10-29T04:25:07.425Z,9.80
2023-10-29T04:27:36.442Z,9.80
2023-10-29T04:30:05.619Z,9.70
2023-10-29T04:32:34.660Z,9.70
2023-10-29T04:35:05.602Z,9.70
2023-10-29T04:37:34.638Z,9.60
2023-10-29T04:40:04.699Z,9.60
2023-10-29T04:42:33.484Z,9.50
2023-10-29T04:45:02.535Z,9.50
2023-10-29T04:47:31.676Z,9.50
2023-10-29T04:50:00.845Z,9.50
2023-10-29T04:52:31.161Z,9.40
2023-10-29T04:55:01.828Z,9.40
2023-10-29T04:57:30.766Z,9.30
2023-10-29T05:00:00.018Z,9.20
2023-10-29T05:02:29.256Z,9.20
2023-10-29T05:04:58.265Z,9.20
2023-10-29T05:07:27.263Z,9.20
2023-10-29T05:09:57.860Z,9.20
2023-10-29T05:12:27.001Z,9.20
2023-10-29T05:14:55.910Z,9.40
2023-10-29T05:17:24.721Z,9.40
2023-10-29T05:19:55.680Z,9.40
2023-10-29T05:22:24.838Z,9.50
2023-10-29T05:24:53.779Z,9.50
2023-10-29T05:27:24.419Z,9.50
2023-10-29T05:29:53.282Z,9.50
2023-10-29T05:32:22.353Z,9.60
2023-10-29T05:34:51.429Z,9.50
2023-10-29T05:37:20.386Z,9.60
2023-10-29T05:39:49.102Z,9.50
2023-10-29T05:42:18.266Z,9.60
2023-10-29T05:44:48.628Z,9.60
2023-10-29T05:47:17.475Z,9.60
2023-10-29T05:49:46.566Z,9.60
2023-10-29T05:52:15.253Z,9.70
2023-10-29T05:54:43.871Z,9.80
2023-10-29T05:57:12.722Z,9.80
2023-10-29T05:59:41.425Z,9.90
2023-10-29T06:02:13.189Z,9.90
2023-10-29T06:04:42.387Z,9.90
2023-10-29T06:07:11.244Z,9.90
2023-10-29T06:09:41.169Z,9.90
2023-10-29T06:12:11.105Z,9.90
2023-10-29T06:14:40.057Z,9.90
2023-10-29T06:17:23.323Z,9.90
2023-10-29T06:19:55.375Z,10.00
2023-10-29T06:22:24.511Z,10.00
2023-10-29T06:24:53.393Z,10.00
2023-10-29T06:27:22.959Z,10.10
2023-10-29T06:29:51.772Z,10.20
2023-10-29T06:32:22.121Z,10.30
2023-10-29T06:34:51.137Z,10.30
2023-10-29T06:37:20.000Z,10.50
2023-10-29T06:39:49.515Z,10.50
2023-10-29T06:42:18.650Z,10.60
2023-10-29T06:44:47.861Z,10.70
2023-10-29T06:47:17.074Z,10.80
2023-10-29T06:49:47.690Z,10.90
2023-10-29T06:52:16.576Z,10.90
2023-10-29T06:54:45.417Z,10.90
2023-10-29T06:57:14.394Z,11.00
2023-10-29T06:59:44.132Z,11.00
2023-10-29T07:02:13.561Z,11.00
2023-10-29T07:04:43.274Z,11.10
2023-10-29T07:07:14.474Z,11.20
2023-10-29T07:09:43.185Z,11.20
2023-10-29T07:12:12.062Z,11.30
2023-10-29T07:14:41.241Z,11.40
2023-10-29T07:17:10.169Z,11.50
2023-10-29T07:19:39.811Z,11.70
2023-10-29T07:22:08.742Z,11.70
2023-10-29T07:24:39.233Z,11.80
2023-10-29T07:27:08.089Z,11.90
2023-10-29T07:29:36.719Z,11.90
2023-10-29T07:32:05.963Z,11.90
2023-10-29T07:34:34.884Z,11.90
2023-10-29T07:37:03.708Z,11.80
2023-10-29T07:39:32.645Z,11.80
2023-10-29T07:42:03.915Z,11.80
2023-10-29T07:44:32.807Z,11.90
2023-10-29T07:47:09.258Z,11.90
2023-10-29T07:49:38.730Z,12.00
2023-10-29T07:52:08.271Z,11.90
2023-10-29T07:54:37.144Z,11.90
2023-10-29T07:57:08.197Z,11.90
2023-10-29T07:59:37.024Z,11.90
2023-10-29T08:02:06.547Z,11.90
2023-10-29T08:04:35.485Z,11.80
2023-10-29T08:07:05.110Z,11.80
2023-10-29T08:09:34.009Z,11.90
2023-10-29T08:12:02.926Z,11.90
2023-10-29T08:14:33.524Z,12.00
2023-10-29T08:17:02.280Z,12.00
2023-10-29T08:19:31.096Z,12.10
2023-10-29T08:21:59.919Z,12.20
2023-10-29T08:24:28.998Z,12.30
2023-10-29T08:26:57.805Z,12.30
2023-10-29T08:29:26.656Z,12.30
2023-10-29T08:31:56.862Z,12.40
2023-10-29T08:34:25.750Z,12.40
2023-10-29T08:36:54.562Z,12.50
2023-10-29T08:39:23.784Z,12.50
2023-10-29T08:41:52.968Z,12.60
2023-10-29T08:44:21.968Z,12.80
2023-10-29T08:46:51.149Z,13.00
2023-10-29T08:49:21.561Z,13.10
2023-10-29T08:51:51.507Z,13.30
2023-10-29T08:54:20.794Z,13.40
2023-10-29T08:56:50.437Z,13.60
2023-10-29T08:59:19.574Z,13.70
2023-10-29T09:01:48.663Z,13.80
2023-10-29T09:04:17.916Z,13.80
2023-10-29T09:06:48.412Z,13.90
2023-10-29T09:09:17.292Z,14.10
2023-10-29T09:11:48.078Z,14.30
2023-10-29T09:14:17.463Z,14.50
2023-10-29T09:16:49.114Z,14.70
2023-10-29T09:19:18.459Z,14.80
2023-10-29T09:21:49.037Z,15.00
2023-10-29T09:24:18.041Z,15.40
2023-10-29T09:26:46.913Z,15.70
2023-10-29T09:29:15.722Z,16.00
2023-10-29T09:31:45.040Z,16.30
2023-10-29T09:34:13.967Z,16.40
2023-10-29T09:36:44.900Z,16.70
2023-10-29T09:39:15.137Z,17.00
2023-10-29T09:41:46.495Z,17.20
2023-10-29T09:44:19.750Z,17.30
2023-10-29T09:46:49.063Z,17.50
2023-10-29T09:49:18.041Z,17.60
2023-10-29T09:51:46.744Z,17.80
2023-10-29T09:54:18.976Z,17.80
2023-10-29T09:56:51.358Z,17.90
2023-10-29T09:59:20.525Z,17.90
2023-10-29T10:01:58.414Z,17.90
2023-10-29T10:04:28.030Z,17.80
2023-10-29T10:07:00.193Z,17.70
2023-10-29T10:09:52.295Z,17.70
2023-10-29T10:12:21.946Z,17.60
2023-10-29T10:14:51.050Z,17.50
2023-10-29T10:17:19.923Z,17.30
2023-10-29T10:19:48.875Z,17.30
2023-10-29T10:22:36.696Z,17.20
2023-10-29T10:25:08.353Z,17.20
2023-10-29T10:27:50.571Z,17.20
2023-10-29T10:30:34.524Z,17.30
2023-10-29T10:33:11.958Z,17.30
2023-10-29T10:35:44.703Z,17.50
2023-10-29T10:38:14.482Z,17.60
2023-10-29T10:40:45.853Z,17.70
2023-10-29T10:43:20.897Z,17.70
2023-10-29T10:45:52.257Z,17.70
2023-10-29T10:48:21.262Z,17.60
2023-10-29T10:50:50.246Z,17.50
2023-10-29T10:53:22.196Z,17.50
2023-10-29T10:56:03.184Z,17.40
2023-10-29T10:58:35.830Z,17.40
2023-10-29T11:01:07.501Z,17.40
2023-10-29T11:03:36.959Z,17.40
2023-10-29T11:06:07.624Z,17.40
2023-10-29T11:08:36.958Z,17.30
2023-10-29T11:11:08.444Z,17.30
2023-10-29T11:13:37.293Z,17.40
2023-10-29T11:16:09.576Z,17.40
2023-10-29T11:18:38.954Z,17.40
2023-10-29T11:21:08.496Z,17.30
2023-10-29T11:23:37.410Z,17.20
2023-10-29T11:26:24.661Z,17.10
2023-10-29T11:28:54.471Z,16.90
2023-10-29T11:31:26.637Z,16.70
2023-10-29T11:34:34.485Z,16.50
2023-10-29T11:37:03.652Z,16.30
2023-10-29T11:39:32.597Z,16.10
2023-10-29T11:42:22.963Z,15.90
2023-10-29T11:44:52.472Z,15.80
2023-10-29T11:47:21.236Z,15.70
2023-10-29T11:50:12.545Z,15.70
2023-10-29T11:52:44.377Z,15.60
2023-10-29T11:55:14.099Z,15.60
2023-10-29T11:57:48.796Z,15.50
2023-10-29T12:00:19.030Z,15.60
2023-10-29T12:02:48.424Z,15.50
2023-10-29T12:05:18.275Z,15.40
2023-10-29T12:07:47.126Z,15.40
2023-10-29T12:10:16.172Z,15.30
2023-10-29T12:12:55.973Z,15.20
2023-10-29T12:15:25.635Z,15.20
2023-10-29T12:17:54.753Z,15.20
2023-10-29T12:20:26.593Z,15.20
2023-10-29T12:22:59.529Z,15.20
2023-10-29T12:25:29.455Z,15.30
2023-10-29T12:28:00.482Z,15.30
2023-10-29T12:30:40.281Z,15.40
2023-10-29T12:33:22.336Z,15.50
2023-10-29T12:35:52.460Z,15.50
2023-10-29T12:38:22.693Z,15.50
2023-10-29T12:41:09.842Z,15.50
2023-10-29T12:43:41.654Z,15.50
2023-10-29T12:46:12.407Z,15.60
2023-10-29T12:49:01.129Z,15.60
2023-10-29T12:51:33.769Z,15.70
2023-10-29T12:54:13.493Z,15.70
2023-10-29T12:56:53.439Z,15.80
2023-10-29T12:59:26.886Z,15.80
2023-10-29T13:01:57.293Z,15.80
2023-10-29T13:04:28.509Z,15.80
2023-10-29T13:06:58.900Z,15.90
2023-10-29T13:09:29.809Z,16.00
2023-10-29T13:11:59.856Z,16.10
2023-10-29T13:14:30.507Z,16.30
2023-10-29T13:16:59.087Z,16.50
2023-10-29T13:19:28.075Z,16.60
2023-10-29T13:21:56.980Z,16.70
2023-10-29T13:24:26.287Z,16.70
2023-10-29T13:26:55.568Z,16.70
2023-10-29T13:29:24.376Z,16.70
2023-10-29T13:31:54.689Z,16.70
2023-10-29T13:34:23.420Z,16.60
2023-10-29T13:36:52.129Z,16.60
2023-10-29T13:39:21.094Z,16.50
2023-10-29T13:41:50.605Z,16.50
2023-10-29T13:44:19.446Z,16.50
2023-10-29T13:46:48.789Z,16.50
2023-10-29T13:49:19.561Z,16.60
2023-10-29T13:51:48.528Z,16.70
2023-10-29T13:54:17.476Z,16.80
2023-10-29T13:56:46.892Z,16.90
2023-10-29T13:59:16.385Z,16.90
2023-10-29T14:01:45.484Z,17.00
2023-10-29T14:04:14.524Z,17.00
2023-10-29T14:06:46.890Z,17.10
2023-10-29T14:09:16.281Z,17.10
2023-10-29T14:11:45.023Z,17.10
2023-10-29T14:14:13.810Z,17.10
2023-10-29T14:16:43.871Z,17.10
2023-10-29T14:19:12.703Z,17.00
2023-10-29T14:21:41.581Z,16.90
2023-10-29T14:24:12.165Z,16.80
2023-10-29T14:26:41.010Z,16.70
2023-10-29T14:29:10.183Z,16.60
2023-10-29T14:31:39.108Z,16.50
2023-10-29T14:34:08.056Z,16.40
2023-10-29T14:36:37.618Z,16.30
2023-10-29T14:39:07.188Z,16.30
2023-10-29T14:41:37.494Z,16.20
2023-10-29T14:44:06.809Z,16.20
2023-10-29T14:46:37.706Z,16.10
2023-10-29T14:49:07.416Z,16.10
2023-10-29T14:51:36.364Z,16.10
2023-10-29T14:54:05.371Z,16.10
2023-10-29T14:56:34.117Z,16.10
2023-10-29T14:59:05.115Z,16.10
2023-10-29T15:01:33.973Z,16.10
2023-10-29T15:04:02.890Z,16.10
2023-10-29T15:06:32.120Z,16.00
2023-10-29T15:09:01.275Z,16.00
2023-10-29T15:11:36.960Z,15.90
2023-10-29T15:14:07.924Z,15.90
2023-10-29T15:16:36.550Z,15.80
2023-10-29T15:19:07.007Z,15.70
2023-10-29T15:21:36.187Z,15.60
2023-10-29T15:24:05.603Z,15.60
2023-10-29T15:26:34.695Z,15.50
2023-10-29T15:29:03.569Z,15.40
2023-10-29T15:31:34.475Z,15.40
2023-10-29T15:34:03.490Z,15.20
2023-10-29T15:36:32.327Z,15.20
2023-10-29T15:39:01.128Z,15.10
2023-10-29T15:41:30.134Z,15.10
2023-10-29T15:43:59.029Z,15.00
2023-10-29T15:46:28.464Z,15.00
2023-10-29T15:48:58.817Z,14.90
2023-10-29T15:51:27.754Z,14.80
2023-10-29T15:53:56.678Z,14.80
2023-10-29T15:56:27.603Z,14.70
2023-10-29T15:58:56.775Z,14.60
2023-10-29T16:01:25.534Z,14.60
2023-10-29T16:03:55.271Z,14.50
2023-10-29T16:06:25.701Z,14.40
2023-10-29T16:08:54.507Z,14.40
2023-10-29T16:11:25.195Z,14.40
2023-10-29T16:13:53.890Z,14.30
2023-10-29T16:16:22.973Z,14.30
2023-10-29T16:18:53.852Z,14.30
2023-10-29T16:21:22.613Z,14.30
2023-10-29T16:23:52.977Z,14.20
2023-10-29T16:26:22.079Z,14.20
2023-10-29T16:28:51.024Z,14.10
2023-10-29T16:31:19.937Z,14.10
2023-10-29T16:33:49.560Z,14.20
2023-10-29T16:36:18.560Z,14.10
2023-10-29T16:38:47.701Z,14.10
2023-10-29T16:41:18.766Z,14.10
2023-10-29T16:43:50.917Z,14.10
2023-10-29T16:46:19.943Z,14.10
2023-10-29T16:48:49.421Z,14.10
2023-10-29T16:51:18.250Z,14.10
2023-10-29T16:53:47.430Z,14.10
2023-10-29T16:56:18.387Z,14.10
2023-10-29T16:58:47.924Z,14.10
2023-10-29T17:01:17.066Z,14.10
2023-10-29T17:03:46.322Z,14.10
2023-10-29T17:06:16.078Z,14.10
2023-10-29T17:08:45.854Z,14.10
2023-10-29T17:11:14.832Z,14.10
2023-10-29T17:13:46.149Z,14.10
2023-10-29T17:16:14.858Z,14.10
2023-10-29T17:18:44.068Z,14.10
2023-10-29T17:21:16.740Z,14.10
2023-10-29T17:23:46.593Z,14.10
2023-10-29T17:26:16.174Z,14.10
2023-10-29T17:28:46.814Z,14.00
2023-10-29T17:31:15.724Z,14.00
2023-10-29T17:33:45.123Z,14.00
2023-10-29T17:36:14.767Z,14.00
2023-10-29T17:38:45.368Z,14.00
2023-10-29T17:41:18.675Z,14.00
2023-10-29T17:43:49.380Z,14.00
2023-10-29T17:46:19.760Z,14.00
2023-10-29T17:48:50.109Z,14.00
2023-10-29T17:51:19.048Z,13.90
2023-10-29T17:53:50.237Z,14.00
2023-10-29T17:56:19.088Z,14.00
2023-10-29T17:58:50.375Z,13.90
2023-10-29T18:01:20.128Z,14.00
2023-10-29T18:03:54.914Z,14.10
2023-10-29T18:06:24.319Z,14.00
2023-10-29T18:08:53.300Z,14.00
2023-10-29T18:11:22.843Z,14.00
2023-10-29T18:13:53.389Z,14.00
2023-10-29T18:16:22.465Z,14.00
2023-10-29T18:18:53.198Z,13.90
2023-10-29T18:21:21.923Z,13.90
2023-10-29T18:23:51.197Z,13.80
2023-10-29T18:26:20.516Z,13.80
2023-10-29T18:28:49.542Z,13.70
2023-10-29T18:31:20.048Z,13.50
2023-10-29T18:33:48.901Z,13.30
2023-10-29T18:36:17.626Z,13.10
2023-10-29T18:38:46.584Z,13.00
2023-10-29T18:41:19.927Z,12.90
2023-10-29T18:43:50.434Z,12.90
2023-10-29T18:46:20.827Z,12.80
2023-10-29T18:48:49.757Z,12.80
2023-10-29T18:51:19.180Z,12.80
2023-10-29T18:53:48.987Z,12.80
2023-10-29T18:56:17.724Z,12.80
2023-10-29T18:58:46.821Z,12.80
2023-10-29T19:01:15.522Z,12.80
2023-10-29T19:03:46.317Z,12.90
2023-10-29T19:06:15.205Z,12.90
2023-10-29T19:08:43.918Z,13.00
2023-10-29T19:11:12.909Z,13.00
2023-10-29T19:13:41.772Z,13.10
2023-10-29T19:16:10.873Z,13.20
2023-10-29T19:18:40.560Z,13.20
2023-10-29T19:21:14.931Z,13.20
2023-10-29T19:23:44.483Z,13.20
2023-10-29T19:26:13.469Z,13.00
2023-10-29T19:28:42.714Z,12.90
2023-10-29T19:31:25.091Z,12.70
2023-10-29T19:33:56.610Z,12.50
2023-10-29T19:36:27.093Z,12.40
2023-10-29T19:38:57.991Z,12.30
2023-10-29T19:41:26.714Z,12.20
2023-10-29T19:43:55.516Z,12.20
2023-10-29T19:46:24.680Z,12.10
2023-10-29T19:48:55.143Z,12.10
2023-10-29T19:51:24.476Z,12.00
2023-10-29T19:53:54.995Z,12.00
2023-10-29T19:56:25.194Z,12.00
2023-10-29T19:58:55.317Z,12.00
2023-10-29T20:01:24.367Z,11.90
2023-10-29T20:03:53.308Z,11.90
2023-10-29T20:06:22.360Z,11.90
2023-10-29T20:08:51.186Z,11.90
2023-10-29T20:11:21.644Z,11.90
2023-10-29T20:13:51.360Z,11.80
2023-10-29T20:16:20.257Z,11.80
2023-10-29T20:18:50.074Z,11.70
2023-10-29T20:21:20.408Z,11.80
2023-10-29T20:23:49.322Z,11.80
2023-10-29T20:26:19.712Z,11.70
2023-10-29T20:28:50.650Z,11.70
2023-10-29T20:31:20.616Z,11.70
2023-10-29T20:33:49.654Z,11.70
2023-10-29T20:36:19.015Z,11.70
2023-10-29T20:38:48.248Z,11.80
2023-10-29T20:41:16.967Z,11.80
2023-10-29T20:43:45.948Z,11.70
2023-10-29T20:46:16.204Z,11.80
2023-10-29T20:48:46.245Z,11.80
2023-10-29T20:51:15.306Z,11.90
2023-10-29T20:53:44.012Z,11.80
2023-10-29T20:56:15.221Z,11.90
2023-10-29T20:58:44.316Z,11.80
2023-10-29T21:01:13.067Z,11.80
2023-10-29T21:03:43.357Z,11.80
2023-10-29T21:06:13.581Z,11.80
2023-10-29T21:08:44.289Z,11.80
2023-10-29T21:11:16.615Z,11.80
2023-10-29T21:13:47.258Z,11.80
2023-10-29T21:16:17.714Z,11.70
2023-10-29T21:18:48.277Z,11.70
2023-10-29T21:21:17.299Z,11.70
2023-10-29T21:23:46.295Z,11.70
2023-10-29T21:26:15.041Z,11.70
2023-10-29T21:28:44.118Z,11.70
2023-10-29T21:31:13.284Z,11.60
2023-10-29T21:33:43.861Z,11.60
2023-10-29T21:36:15.133Z,11.60
2023-10-29T21:38:46.609Z,11.60
2023-10-29T21:41:15.704Z,11.60
2023-10-29T21:43:46.538Z,11.60
2023-10-29T21:46:15.774Z,11.60
2023-10-29T21:48:44.517Z,11.60
2023-10-29T21:51:15.734Z,11.60
2023-10-29T21:53:44.616Z,11.60
2023-10-29T21:56:13.333Z,11.60
2023-10-29T21:58:42.042Z,11.60
2023-10-29T22:01:13.202Z,11.60
2023-10-29T22:03:41.971Z,11.60
2023-10-29T22:06:11.879Z,11.60
2023-10-29T22:08:43.303Z,11.60
2023-10-29T22:11:13.434Z,11.60
2023-10-29T22:13:42.463Z,11.60
2023-10-29T22:16:12.340Z,11.60
2023-10-29T22:18:41.730Z,11.60
2023-10-29T22:21:11.978Z,11.60
2023-10-29T22:23:42.756Z,11.60
2023-10-29T22:26:11.551Z,11.60
2023-10-29T22:28:40.545Z,11.60
2023-10-29T22:31:09.448Z,11.60
2023-10-29T22:33:38.579Z,11.60
2023-10-29T22:36:09.338Z,11.60
2023-10-29T22:38:38.127Z,11.60
2023-10-29T22:41:09.368Z,11.60
2023-10-29T22:43:38.279Z,11.60
2023-10-29T22:46:07.272Z,11.50
2023-10-29T22:48:36.285Z,11.50
2023-10-29T22:51:05.678Z,11.60
2023-10-29T22:53:34.458Z,11.50
2023-10-29T22:56:03.291Z,11.50
2023-10-29T22:58:33.654Z,11.50
2023-10-29T23:01:02.797Z,11.50
2023-10-29T23:03:32.055Z,11.60
2023-10-29T23:06:04.433Z,11.50
2023-10-29T23:08:33.573Z,11.60
2023-10-29T23:11:02.796Z,11.60
2023-10-29T23:13:34.052Z,11.60
2023-10-29T23:16:02.991Z,11.60
2023-10-29T23:18:31.778Z,11.60
2023-10-29T23:21:00.818Z,11.60
2023-10-29T23:23:29.881Z,11.60
2023-10-29T23:25:59.172Z,11.60
2023-10-29T23:28:37.463Z,11.60
2023-10-29T23:31:10.294Z,11.60
2023-10-29T23:33:39.464Z,11.60
2023-10-29T23:36:09.012Z,11.60
2023-10-29T23:38:37.760Z,11.60
2023-10-29T23:41:06.463Z,11.60
2023-10-29T23:43:35.338Z,11.50
2023-10-29T23:46:05.368Z,11.50
2023-10-29T23:48:36.415Z,11.60
2023-10-29T23:51:05.825Z,11.60
2023-10-29T23:53:34.895Z,11.50
2023-10-29T23:56:04.447Z,11.50
2023-10-29T23:58:33.186Z,11.50
